sensor_id;sensor_type;location;lat;lon;timestamp;P1;durP1;ratioP1;P2;durP2;ratioP2
13267;SDS011;6702;47.068;15.458;2023-02-12T00:00:24;21.77;;;14.30;;
13267;SDS011;6702;47.068;15.458;2023-02-12T00:03:27;16.90;;;13.17;;
13267;SDS011;6702;47.068;15.458;2023-02-12T00:06:30;15.97;;;13.27;;
13267;SDS011;6702;47.068;15.458;2023-02-12T00:09:35;14.93;;;11.63;;
13267;SDS011;6702;47.068;15.458;2023-02-12T00:12:39;18.17;;;13.77;;
13267;SDS011;6702;47.068;15.458;2023-02-12T00:15:42;18.93;;;12.80;;
13267;SDS011;6702;47.068;15.458;2023-02-12T00:18:45;21.70;;;14.27;;
13267;SDS011;6702;47.068;15.458;2023-02-12T00:21:49;17.73;;;11.80;;
13267;SDS011;6702;47.068;15.458;2023-02-12T00:24:53;14.60;;;12.60;;
13267;SDS011;6702;47.068;15.458;2023-02-12T00:27:57;13.70;;;12.23;;
13267;SDS011;6702;47.068;15.458;2023-02-12T00:31:03;16.70;;;12.03;;
13267;SDS011;6702;47.068;15.458;2023-02-12T00:34:08;14.77;;;12.20;;
13267;SDS011;6702;47.068;15.458;2023-02-12T00:37:13;19.03;;;16.53;;
13267;SDS011;6702;47.068;15.458;2023-02-12T00:40:17;18.07;;;13.57;;
13267;SDS011;6702;47.068;15.458;2023-02-12T00:43:21;18.50;;;13.77;;
13267;SDS011;6702;47.068;15.458;2023-02-12T00:46:24;25.03;;;14.47;;
13267;SDS011;6702;47.068;15.458;2023-02-12T00:49:27;17.03;;;13.97;;
13267;SDS011;6702;47.068;15.458;2023-02-12T00:52:34;18.77;;;13.77;;
13267;SDS011;6702;47.068;15.458;2023-02-12T00:55:39;14.67;;;12.20;;
13267;SDS011;6702;47.068;15.458;2023-02-12T00:58:42;19.20;;;13.07;;
13267;SDS011;6702;47.068;15.458;2023-02-12T01:01:45;15.53;;;13.90;;
13267;SDS011;6702;47.068;15.458;2023-02-12T01:04:49;20.00;;;12.67;;
13267;SDS011;6702;47.068;15.458;2023-02-12T01:07:52;20.57;;;14.07;;
13267;SDS011;6702;47.068;15.458;2023-02-12T01:10:58;17.20;;;15.23;;
13267;SDS011;6702;47.068;15.458;2023-02-12T01:14:03;15.30;;;12.57;;
13267;SDS011;6702;47.068;15.458;2023-02-12T01:17:07;18.07;;;13.40;;
13267;SDS011;6702;47.068;15.458;2023-02-12T01:20:11;19.07;;;13.20;;
13267;SDS011;6702;47.068;15.458;2023-02-12T01:23:17;15.07;;;11.43;;
13267;SDS011;6702;47.068;15.458;2023-02-12T01:26:22;13.50;;;12.03;;
13267;SDS011;6702;47.068;15.458;2023-02-12T01:29:25;13.60;;;11.20;;
13267;SDS011;6702;47.068;15.458;2023-02-12T01:32:28;16.03;;;11.10;;
13267;SDS011;6702;47.068;15.458;2023-02-12T01:35:32;12.40;;;10.87;;
13267;SDS011;6702;47.068;15.458;2023-02-12T01:38:35;15.43;;;10.73;;
13267;SDS011;6702;47.068;15.458;2023-02-12T01:41:40;12.50;;;9.97;;
13267;SDS011;6702;47.068;15.458;2023-02-12T01:44:45;12.53;;;10.50;;
13267;SDS011;6702;47.068;15.458;2023-02-12T01:48:34;11.20;;;9.90;;
13267;SDS011;6702;47.068;15.458;2023-02-12T01:51:40;12.40;;;9.67;;
13267;SDS011;6702;47.068;15.458;2023-02-12T01:54:45;14.27;;;10.10;;
13267;SDS011;6702;47.068;15.458;2023-02-12T01:57:51;14.10;;;10.20;;
13267;SDS011;6702;47.068;15.458;2023-02-12T02:00:54;16.67;;;10.27;;
13267;SDS011;6702;47.068;15.458;2023-02-12T02:03:58;12.70;;;9.67;;
13267;SDS011;6702;47.068;15.458;2023-02-12T02:07:04;17.10;;;11.03;;
13267;SDS011;6702;47.068;15.458;2023-02-12T02:10:09;11.83;;;8.60;;
13267;SDS011;6702;47.068;15.458;2023-02-12T02:13:14;10.97;;;9.10;;
13267;SDS011;6702;47.068;15.458;2023-02-12T02:16:35;13.73;;;10.00;;
13267;SDS011;6702;47.068;15.458;2023-02-12T02:19:46;12.23;;;8.93;;
13267;SDS011;6702;47.068;15.458;2023-02-12T02:23:14;10.70;;;8.70;;
13267;SDS011;6702;47.068;15.458;2023-02-12T02:26:57;12.10;;;10.00;;
13267;SDS011;6702;47.068;15.458;2023-02-12T02:30:23;12.83;;;9.73;;
13267;SDS011;6702;47.068;15.458;2023-02-12T02:33:36;14.50;;;9.83;;
13267;SDS011;6702;47.068;15.458;2023-02-12T02:36:44;10.80;;;9.10;;
13267;SDS011;6702;47.068;15.458;2023-02-12T02:40:03;11.70;;;7.73;;
13267;SDS011;6702;47.068;15.458;2023-02-12T02:43:14;10.23;;;8.20;;
13267;SDS011;6702;47.068;15.458;2023-02-12T02:46:22;10.83;;;8.63;;
13267;SDS011;6702;47.068;15.458;2023-02-12T02:49:30;11.37;;;8.50;;
13267;SDS011;6702;47.068;15.458;2023-02-12T02:52:42;12.07;;;8.33;;
13267;SDS011;6702;47.068;15.458;2023-02-12T02:55:51;12.07;;;8.50;;
13267;SDS011;6702;47.068;15.458;2023-02-12T02:58:57;11.20;;;8.77;;
13267;SDS011;6702;47.068;15.458;2023-02-12T03:02:06;11.47;;;9.20;;
13267;SDS011;6702;47.068;15.458;2023-02-12T03:05:15;11.80;;;8.73;;
13267;SDS011;6702;47.068;15.458;2023-02-12T03:08:22;12.50;;;9.50;;
13267;SDS011;6702;47.068;15.458;2023-02-12T03:11:29;15.43;;;9.47;;
13267;SDS011;6702;47.068;15.458;2023-02-12T03:14:35;10.90;;;7.67;;
13267;SDS011;6702;47.068;15.458;2023-02-12T03:17:44;11.37;;;8.47;;
13267;SDS011;6702;47.068;15.458;2023-02-12T03:20:50;9.13;;;7.60;;
13267;SDS011;6702;47.068;15.458;2023-02-12T03:23:57;8.73;;;7.83;;
13267;SDS011;6702;47.068;15.458;2023-02-12T03:27:06;11.57;;;7.53;;
13267;SDS011;6702;47.068;15.458;2023-02-12T03:30:12;10.80;;;7.97;;
13267;SDS011;6702;47.068;15.458;2023-02-12T03:33:19;12.27;;;8.37;;
13267;SDS011;6702;47.068;15.458;2023-02-12T03:36:32;11.17;;;8.20;;
13267;SDS011;6702;47.068;15.458;2023-02-12T03:39:43;11.87;;;8.13;;
13267;SDS011;6702;47.068;15.458;2023-02-12T03:42:52;11.73;;;8.40;;
13267;SDS011;6702;47.068;15.458;2023-02-12T03:46:02;10.00;;;7.97;;
13267;SDS011;6702;47.068;15.458;2023-02-12T03:49:19;10.13;;;8.23;;
13267;SDS011;6702;47.068;15.458;2023-02-12T03:52:25;12.50;;;8.40;;
13267;SDS011;6702;47.068;15.458;2023-02-12T03:55:30;10.33;;;8.50;;
13267;SDS011;6702;47.068;15.458;2023-02-12T03:58:35;12.20;;;8.43;;
13267;SDS011;6702;47.068;15.458;2023-02-12T04:01:41;9.70;;;8.57;;
13267;SDS011;6702;47.068;15.458;2023-02-12T04:04:46;11.40;;;8.83;;
13267;SDS011;6702;47.068;15.458;2023-02-12T04:07:50;12.20;;;9.30;;
13267;SDS011;6702;47.068;15.458;2023-02-12T04:10:57;10.67;;;9.53;;
13267;SDS011;6702;47.068;15.458;2023-02-12T04:14:12;10.87;;;8.30;;
13267;SDS011;6702;47.068;15.458;2023-02-12T04:17:20;13.83;;;8.80;;
13267;SDS011;6702;47.068;15.458;2023-02-12T04:20:34;12.87;;;8.73;;
13267;SDS011;6702;47.068;15.458;2023-02-12T04:23:46;8.87;;;7.97;;
13267;SDS011;6702;47.068;15.458;2023-02-12T04:26:53;11.43;;;8.23;;
13267;SDS011;6702;47.068;15.458;2023-02-12T04:30:02;12.07;;;8.80;;
13267;SDS011;6702;47.068;15.458;2023-02-12T04:33:10;9.67;;;8.07;;
13267;SDS011;6702;47.068;15.458;2023-02-12T04:36:21;11.40;;;8.03;;
13267;SDS011;6702;47.068;15.458;2023-02-12T04:39:28;11.60;;;8.53;;
13267;SDS011;6702;47.068;15.458;2023-02-12T04:42:39;12.83;;;10.30;;
13267;SDS011;6702;47.068;15.458;2023-02-12T04:45:43;11.50;;;8.80;;
13267;SDS011;6702;47.068;15.458;2023-02-12T04:48:49;11.70;;;9.50;;
13267;SDS011;6702;47.068;15.458;2023-02-12T04:51:56;16.53;;;9.73;;
13267;SDS011;6702;47.068;15.458;2023-02-12T04:54:59;11.50;;;9.90;;
13267;SDS011;6702;47.068;15.458;2023-02-12T04:58:02;12.67;;;10.53;;
13267;SDS011;6702;47.068;15.458;2023-02-12T05:01:06;13.97;;;10.87;;
13267;SDS011;6702;47.068;15.458;2023-02-12T05:04:11;13.90;;;10.17;;
13267;SDS011;6702;47.068;15.458;2023-02-12T05:07:17;11.03;;;8.77;;
13267;SDS011;6702;47.068;15.458;2023-02-12T05:10:20;13.73;;;9.23;;
13267;SDS011;6702;47.068;15.458;2023-02-12T05:13:23;10.00;;;9.00;;
13267;SDS011;6702;47.068;15.458;2023-02-12T05:16:26;11.07;;;8.80;;
13267;SDS011;6702;47.068;15.458;2023-02-12T05:19:30;11.23;;;9.60;;
13267;SDS011;6702;47.068;15.458;2023-02-12T05:22:34;13.90;;;9.40;;
13267;SDS011;6702;47.068;15.458;2023-02-12T05:25:37;11.30;;;9.30;;
13267;SDS011;6702;47.068;15.458;2023-02-12T05:28:40;10.37;;;8.90;;
13267;SDS011;6702;47.068;15.458;2023-02-12T05:31:44;11.97;;;9.53;;
13267;SDS011;6702;47.068;15.458;2023-02-12T05:34:47;11.80;;;10.47;;
13267;SDS011;6702;47.068;15.458;2023-02-12T05:37:52;11.73;;;10.53;;
13267;SDS011;6702;47.068;15.458;2023-02-12T05:40:59;14.20;;;9.50;;
13267;SDS011;6702;47.068;15.458;2023-02-12T05:44:03;10.80;;;8.77;;
13267;SDS011;6702;47.068;15.458;2023-02-12T05:47:07;10.50;;;9.37;;
13267;SDS011;6702;47.068;15.458;2023-02-12T05:50:11;12.80;;;9.87;;
13267;SDS011;6702;47.068;15.458;2023-02-12T05:53:15;13.03;;;10.30;;
13267;SDS011;6702;47.068;15.458;2023-02-12T05:56:19;12.20;;;9.97;;
13267;SDS011;6702;47.068;15.458;2023-02-12T05:59:24;14.60;;;11.13;;
13267;SDS011;6702;47.068;15.458;2023-02-12T06:02:27;13.23;;;10.50;;
13267;SDS011;6702;47.068;15.458;2023-02-12T06:05:30;16.43;;;11.13;;
13267;SDS011;6702;47.068;15.458;2023-02-12T06:08:35;13.63;;;10.77;;
13267;SDS011;6702;47.068;15.458;2023-02-12T06:11:38;15.00;;;10.30;;
13267;SDS011;6702;47.068;15.458;2023-02-12T06:14:42;11.60;;;9.47;;
13267;SDS011;6702;47.068;15.458;2023-02-12T06:17:45;11.90;;;9.30;;
13267;SDS011;6702;47.068;15.458;2023-02-12T06:20:48;11.40;;;9.23;;
13267;SDS011;6702;47.068;15.458;2023-02-12T06:23:53;12.87;;;9.40;;
13267;SDS011;6702;47.068;15.458;2023-02-12T06:26:56;11.50;;;8.83;;
13267;SDS011;6702;47.068;15.458;2023-02-12T06:29:59;16.47;;;10.40;;
13267;SDS011;6702;47.068;15.458;2023-02-12T06:33:02;11.10;;;9.63;;
13267;SDS011;6702;47.068;15.458;2023-02-12T06:36:06;10.00;;;8.17;;
13267;SDS011;6702;47.068;15.458;2023-02-12T06:39:11;9.63;;;8.30;;
13267;SDS011;6702;47.068;15.458;2023-02-12T06:42:16;11.67;;;9.30;;
13267;SDS011;6702;47.068;15.458;2023-02-12T06:45:19;10.27;;;9.27;;
13267;SDS011;6702;47.068;15.458;2023-02-12T06:48:22;10.30;;;9.20;;
13267;SDS011;6702;47.068;15.458;2023-02-12T06:51:26;12.17;;;9.13;;
13267;SDS011;6702;47.068;15.458;2023-02-12T06:54:31;16.03;;;10.07;;
13267;SDS011;6702;47.068;15.458;2023-02-12T06:57:34;14.50;;;10.13;;
13267;SDS011;6702;47.068;15.458;2023-02-12T07:00:38;11.63;;;9.33;;
13267;SDS011;6702;47.068;15.458;2023-02-12T07:03:41;14.23;;;10.67;;
13267;SDS011;6702;47.068;15.458;2023-02-12T07:06:45;14.17;;;10.43;;
13267;SDS011;6702;47.068;15.458;2023-02-12T07:09:50;16.47;;;10.40;;
13267;SDS011;6702;47.068;15.458;2023-02-12T07:12:53;13.70;;;10.60;;
13267;SDS011;6702;47.068;15.458;2023-02-12T07:15:56;11.17;;;10.03;;
13267;SDS011;6702;47.068;15.458;2023-02-12T07:18:59;15.40;;;10.60;;
13267;SDS011;6702;47.068;15.458;2023-02-12T07:22:03;10.50;;;9.37;;
13267;SDS011;6702;47.068;15.458;2023-02-12T07:25:07;14.20;;;10.67;;
13267;SDS011;6702;47.068;15.458;2023-02-12T07:28:11;12.40;;;9.83;;
13267;SDS011;6702;47.068;15.458;2023-02-12T07:31:15;11.83;;;9.17;;
13267;SDS011;6702;47.068;15.458;2023-02-12T07:34:20;9.40;;;7.83;;
13267;SDS011;6702;47.068;15.458;2023-02-12T07:37:23;12.17;;;8.40;;
13267;SDS011;6702;47.068;15.458;2023-02-12T07:40:28;13.23;;;9.60;;
13267;SDS011;6702;47.068;15.458;2023-02-12T07:43:31;9.13;;;8.10;;
13267;SDS011;6702;47.068;15.458;2023-02-12T07:46:35;9.83;;;8.43;;
13267;SDS011;6702;47.068;15.458;2023-02-12T07:49:39;10.30;;;8.97;;
13267;SDS011;6702;47.068;15.458;2023-02-12T07:52:43;12.90;;;9.00;;
13267;SDS011;6702;47.068;15.458;2023-02-12T07:55:47;10.53;;;8.80;;
13267;SDS011;6702;47.068;15.458;2023-02-12T07:58:51;10.80;;;9.23;;
13267;SDS011;6702;47.068;15.458;2023-02-12T08:01:55;11.30;;;9.63;;
13267;SDS011;6702;47.068;15.458;2023-02-12T08:04:58;10.70;;;9.53;;
13267;SDS011;6702;47.068;15.458;2023-02-12T08:08:02;12.63;;;9.57;;
13267;SDS011;6702;47.068;15.458;2023-02-12T08:11:07;13.97;;;10.90;;
13267;SDS011;6702;47.068;15.458;2023-02-12T08:14:12;18.30;;;13.03;;
13267;SDS011;6702;47.068;15.458;2023-02-12T08:17:17;31.67;;;19.80;;
13267;SDS011;6702;47.068;15.458;2023-02-12T08:20:20;22.80;;;12.80;;
13267;SDS011;6702;47.068;15.458;2023-02-12T08:23:23;20.53;;;12.20;;
13267;SDS011;6702;47.068;15.458;2023-02-12T08:26:28;19.30;;;10.60;;
13267;SDS011;6702;47.068;15.458;2023-02-12T08:29:32;15.67;;;10.33;;
13267;SDS011;6702;47.068;15.458;2023-02-12T08:32:36;13.93;;;10.20;;
13267;SDS011;6702;47.068;15.458;2023-02-12T08:35:39;11.80;;;9.83;;
13267;SDS011;6702;47.068;15.458;2023-02-12T08:38:42;12.17;;;9.47;;
13267;SDS011;6702;47.068;15.458;2023-02-12T08:41:48;19.00;;;15.37;;
13267;SDS011;6702;47.068;15.458;2023-02-12T08:44:52;27.87;;;20.23;;
13267;SDS011;6702;47.068;15.458;2023-02-12T08:47:55;40.70;;;30.90;;
13267;SDS011;6702;47.068;15.458;2023-02-12T08:51:05;20.70;;;13.67;;
13267;SDS011;6702;47.068;15.458;2023-02-12T08:54:14;18.40;;;12.17;;
13267;SDS011;6702;47.068;15.458;2023-02-12T08:57:20;41.17;;;20.70;;
13267;SDS011;6702;47.068;15.458;2023-02-12T09:00:23;39.20;;;24.20;;
13267;SDS011;6702;47.068;15.458;2023-02-12T09:03:26;42.90;;;28.47;;
13267;SDS011;6702;47.068;15.458;2023-02-12T09:06:31;31.40;;;24.40;;
13267;SDS011;6702;47.068;15.458;2023-02-12T09:09:36;17.80;;;14.23;;
13267;SDS011;6702;47.068;15.458;2023-02-12T09:12:40;20.20;;;14.10;;
13267;SDS011;6702;47.068;15.458;2023-02-12T09:15:44;18.60;;;16.60;;
13267;SDS011;6702;47.068;15.458;2023-02-12T09:18:47;31.23;;;25.57;;
13267;SDS011;6702;47.068;15.458;2023-02-12T09:21:51;25.07;;;22.40;;
13267;SDS011;6702;47.068;15.458;2023-02-12T09:24:56;14.33;;;12.63;;
13267;SDS011;6702;47.068;15.458;2023-02-12T09:28:01;11.30;;;10.20;;
13267;SDS011;6702;47.068;15.458;2023-02-12T09:31:05;20.17;;;18.10;;
13267;SDS011;6702;47.068;15.458;2023-02-12T09:34:08;15.77;;;13.60;;
13267;SDS011;6702;47.068;15.458;2023-02-12T09:37:12;19.20;;;17.50;;
13267;SDS011;6702;47.068;15.458;2023-02-12T09:43:24;27.87;;;23.57;;
13267;SDS011;6702;47.068;15.458;2023-02-12T09:46:35;21.43;;;18.90;;
13267;SDS011;6702;47.068;15.458;2023-02-12T09:53:14;21.17;;;18.90;;
13267;SDS011;6702;47.068;15.458;2023-02-12T09:56:20;17.70;;;15.90;;
13267;SDS011;6702;47.068;15.458;2023-02-12T09:59:29;18.90;;;17.17;;
13267;SDS011;6702;47.068;15.458;2023-02-12T10:02:38;17.13;;;15.43;;
13267;SDS011;6702;47.068;15.458;2023-02-12T10:05:43;16.03;;;14.60;;
13267;SDS011;6702;47.068;15.458;2023-02-12T10:08:58;13.73;;;12.53;;
13267;SDS011;6702;47.068;15.458;2023-02-12T10:12:07;12.48;;;11.40;;
13267;SDS011;6702;47.068;15.458;2023-02-12T10:15:26;10.77;;;9.85;;
13267;SDS011;6702;47.068;15.458;2023-02-12T10:18:48;13.50;;;12.30;;
13267;SDS011;6702;47.068;15.458;2023-02-12T10:21:59;10.00;;;9.10;;
13267;SDS011;6702;47.068;15.458;2023-02-12T10:25:14;9.98;;;9.25;;
13267;SDS011;6702;47.068;15.458;2023-02-12T10:28:26;11.65;;;10.68;;
13267;SDS011;6702;47.068;15.458;2023-02-12T10:31:41;4.65;;;4.10;;
13267;SDS011;6702;47.068;15.458;2023-02-12T10:34:47;7.05;;;6.55;;
13267;SDS011;6702;47.068;15.458;2023-02-12T10:37:54;4.72;;;4.32;;
13267;SDS011;6702;47.068;15.458;2023-02-12T10:41:00;4.95;;;4.55;;
13267;SDS011;6702;47.068;15.458;2023-02-12T10:44:04;5.88;;;4.82;;
13267;SDS011;6702;47.068;15.458;2023-02-12T10:47:12;12.73;;;11.80;;
13267;SDS011;6702;47.068;15.458;2023-02-12T10:50:23;13.70;;;12.70;;
13267;SDS011;6702;47.068;15.458;2023-02-12T10:53:36;12.35;;;11.45;;
13267;SDS011;6702;47.068;15.458;2023-02-12T10:56:41;11.73;;;10.82;;
13267;SDS011;6702;47.068;15.458;2023-02-12T10:59:45;12.38;;;11.30;;
13267;SDS011;6702;47.068;15.458;2023-02-12T11:03:01;13.02;;;11.93;;
13267;SDS011;6702;47.068;15.458;2023-02-12T11:06:12;15.55;;;14.30;;
13267;SDS011;6702;47.068;15.458;2023-02-12T11:09:19;14.57;;;13.30;;
13267;SDS011;6702;47.068;15.458;2023-02-12T11:12:31;12.45;;;11.35;;
13267;SDS011;6702;47.068;15.458;2023-02-12T11:15:37;10.63;;;9.80;;
13267;SDS011;6702;47.068;15.458;2023-02-12T11:18:57;9.75;;;8.35;;
13267;SDS011;6702;47.068;15.458;2023-02-12T11:22:03;9.23;;;8.52;;
13267;SDS011;6702;47.068;15.458;2023-02-12T11:25:13;10.02;;;9.15;;
13267;SDS011;6702;47.068;15.458;2023-02-12T11:28:18;8.15;;;7.45;;
13267;SDS011;6702;47.068;15.458;2023-02-12T11:31:25;8.63;;;7.93;;
13267;SDS011;6702;47.068;15.458;2023-02-12T11:34:31;7.40;;;6.80;;
13267;SDS011;6702;47.068;15.458;2023-02-12T11:37:38;6.85;;;6.25;;
13267;SDS011;6702;47.068;15.458;2023-02-12T11:40:44;6.40;;;5.80;;
13267;SDS011;6702;47.068;15.458;2023-02-12T11:43:49;6.15;;;5.65;;
13267;SDS011;6702;47.068;15.458;2023-02-12T11:46:57;5.85;;;5.43;;
13267;SDS011;6702;47.068;15.458;2023-02-12T11:50:07;5.40;;;5.00;;
13267;SDS011;6702;47.068;15.458;2023-02-12T11:53:21;6.63;;;5.75;;
13267;SDS011;6702;47.068;15.458;2023-02-12T11:56:38;7.05;;;5.70;;
13267;SDS011;6702;47.068;15.458;2023-02-12T11:59:43;6.93;;;6.10;;
13267;SDS011;6702;47.068;15.458;2023-02-12T12:02:49;9.25;;;8.55;;
13267;SDS011;6702;47.068;15.458;2023-02-12T12:06:01;15.20;;;13.70;;
13267;SDS011;6702;47.068;15.458;2023-02-12T12:09:11;6.88;;;6.28;;
13267;SDS011;6702;47.068;15.458;2023-02-12T12:12:20;5.63;;;4.80;;
13267;SDS011;6702;47.068;15.458;2023-02-12T12:15:28;7.45;;;5.15;;
13267;SDS011;6702;47.068;15.458;2023-02-12T12:18:53;6.55;;;5.95;;
13267;SDS011;6702;47.068;15.458;2023-02-12T12:22:38;8.18;;;7.30;;
13267;SDS011;6702;47.068;15.458;2023-02-12T12:25:46;7.55;;;6.93;;
13267;SDS011;6702;47.068;15.458;2023-02-12T12:28:56;8.05;;;7.32;;
13267;SDS011;6702;47.068;15.458;2023-02-12T12:32:08;16.90;;;15.70;;
13267;SDS011;6702;47.068;15.458;2023-02-12T12:35:16;4.88;;;4.50;;
13267;SDS011;6702;47.068;15.458;2023-02-12T12:38:27;5.88;;;5.38;;
13267;SDS011;6702;47.068;15.458;2023-02-12T12:45:13;4.70;;;4.40;;
13267;SDS011;6702;47.068;15.458;2023-02-12T12:48:31;2.53;;;2.33;;
13267;SDS011;6702;47.068;15.458;2023-02-12T12:51:52;2.20;;;0.95;;
13267;SDS011;6702;47.068;15.458;2023-02-12T12:55:14;1.38;;;0.98;;
13267;SDS011;6702;47.068;15.458;2023-02-12T12:58:36;2.78;;;1.45;;
13267;SDS011;6702;47.068;15.458;2023-02-12T13:01:56;1.50;;;0.88;;
13267;SDS011;6702;47.068;15.458;2023-02-12T13:09:02;0.87;;;0.77;;
13267;SDS011;6702;47.068;15.458;2023-02-12T13:15:51;2.93;;;2.73;;
13267;SDS011;6702;47.068;15.458;2023-02-12T13:19:00;1.30;;;1.20;;
13267;SDS011;6702;47.068;15.458;2023-02-12T13:22:10;2.43;;;1.00;;
13267;SDS011;6702;47.068;15.458;2023-02-12T13:25:21;1.83;;;1.07;;
13267;SDS011;6702;47.068;15.458;2023-02-12T13:28:32;16.23;;;14.60;;
13267;SDS011;6702;47.068;15.458;2023-02-12T13:31:41;1.60;;;1.50;;
13267;SDS011;6702;47.068;15.458;2023-02-12T13:34:50;2.27;;;2.07;;
13267;SDS011;6702;47.068;15.458;2023-02-12T13:37:56;1.90;;;1.80;;
13267;SDS011;6702;47.068;15.458;2023-02-12T13:41:03;1.57;;;1.33;;
13267;SDS011;6702;47.068;15.458;2023-02-12T13:44:15;1.53;;;1.10;;
13267;SDS011;6702;47.068;15.458;2023-02-12T13:47:33;1.65;;;1.05;;
13267;SDS011;6702;47.068;15.458;2023-02-12T13:50:49;1.20;;;1.10;;
13267;SDS011;6702;47.068;15.458;2023-02-12T13:54:05;1.20;;;0.90;;
13267;SDS011;6702;47.068;15.458;2023-02-12T13:57:17;1.50;;;0.93;;
13267;SDS011;6702;47.068;15.458;2023-02-12T14:04:13;1.33;;;1.23;;
13267;SDS011;6702;47.068;15.458;2023-02-12T14:07:39;0.97;;;0.70;;
13267;SDS011;6702;47.068;15.458;2023-02-12T14:10:45;1.00;;;0.60;;
13267;SDS011;6702;47.068;15.458;2023-02-12T14:14:06;0.87;;;0.80;;
13267;SDS011;6702;47.068;15.458;2023-02-12T14:24:51;0.93;;;0.83;;
13267;SDS011;6702;47.068;15.458;2023-02-12T14:27:56;2.00;;;1.00;;
13267;SDS011;6702;47.068;15.458;2023-02-12T14:34:48;0.70;;;0.70;;
13267;SDS011;6702;47.068;15.458;2023-02-12T14:37:53;1.00;;;0.80;;
13267;SDS011;6702;47.068;15.458;2023-02-12T14:41:13;1.13;;;0.97;;
13267;SDS011;6702;47.068;15.458;2023-02-12T14:44:42;1.10;;;0.70;;
13267;SDS011;6702;47.068;15.458;2023-02-12T14:47:48;2.00;;;1.00;;
13267;SDS011;6702;47.068;15.458;2023-02-12T14:50:55;1.00;;;0.90;;
13267;SDS011;6702;47.068;15.458;2023-02-12T14:54:02;0.97;;;0.60;;
13267;SDS011;6702;47.068;15.458;2023-02-12T14:57:20;1.50;;;0.93;;
13267;SDS011;6702;47.068;15.458;2023-02-12T15:00:32;1.23;;;0.90;;
13267;SDS011;6702;47.068;15.458;2023-02-12T15:03:42;0.80;;;0.63;;
13267;SDS011;6702;47.068;15.458;2023-02-12T15:06:57;2.10;;;0.70;;
13267;SDS011;6702;47.068;15.458;2023-02-12T15:10:12;1.27;;;0.97;;
13267;SDS011;6702;47.068;15.458;2023-02-12T15:13:23;1.70;;;1.60;;
13267;SDS011;6702;47.068;15.458;2023-02-12T15:16:37;1.33;;;0.83;;
13267;SDS011;6702;47.068;15.458;2023-02-12T15:19:49;0.83;;;0.70;;
13267;SDS011;6702;47.068;15.458;2023-02-12T15:22:59;0.60;;;0.50;;
13267;SDS011;6702;47.068;15.458;2023-02-12T15:26:27;0.77;;;0.70;;
13267;SDS011;6702;47.068;15.458;2023-02-12T15:29:38;1.57;;;0.83;;
13267;SDS011;6702;47.068;15.458;2023-02-12T15:32:45;1.83;;;0.90;;
13267;SDS011;6702;47.068;15.458;2023-02-12T15:35:50;1.13;;;0.90;;
13267;SDS011;6702;47.068;15.458;2023-02-12T15:38:58;2.23;;;0.80;;
13267;SDS011;6702;47.068;15.458;2023-02-12T15:45:32;0.97;;;0.80;;
13267;SDS011;6702;47.068;15.458;2023-02-12T15:48:39;1.07;;;1.07;;
13267;SDS011;6702;47.068;15.458;2023-02-12T15:51:44;2.03;;;1.60;;
13267;SDS011;6702;47.068;15.458;2023-02-12T15:54:50;1.67;;;1.17;;
13267;SDS011;6702;47.068;15.458;2023-02-12T15:57:56;1.90;;;1.20;;
13267;SDS011;6702;47.068;15.458;2023-02-12T16:01:04;1.53;;;1.30;;
13267;SDS011;6702;47.068;15.458;2023-02-12T16:04:09;1.40;;;1.30;;
13267;SDS011;6702;47.068;15.458;2023-02-12T16:07:14;4.30;;;4.00;;
13267;SDS011;6702;47.068;15.458;2023-02-12T16:10:22;1.90;;;1.80;;
13267;SDS011;6702;47.068;15.458;2023-02-12T16:13:29;3.80;;;3.50;;
13267;SDS011;6702;47.068;15.458;2023-02-12T16:16:38;9.77;;;8.87;;
13267;SDS011;6702;47.068;15.458;2023-02-12T16:19:52;28.10;;;25.50;;
13267;SDS011;6702;47.068;15.458;2023-02-12T16:22:58;21.63;;;19.30;;
13267;SDS011;6702;47.068;15.458;2023-02-12T16:26:10;7.80;;;7.20;;
13267;SDS011;6702;47.068;15.458;2023-02-12T16:29:20;14.23;;;12.90;;
13267;SDS011;6702;47.068;15.458;2023-02-12T16:32:26;8.93;;;8.13;;
13267;SDS011;6702;47.068;15.458;2023-02-12T16:35:37;4.73;;;3.97;;
13267;SDS011;6702;47.068;15.458;2023-02-12T16:38:43;8.73;;;3.60;;
13267;SDS011;6702;47.068;15.458;2023-02-12T16:41:54;10.00;;;5.90;;
13267;SDS011;6702;47.068;15.458;2023-02-12T16:44:59;7.40;;;5.40;;
13267;SDS011;6702;47.068;15.458;2023-02-12T16:48:15;6.63;;;3.80;;
13267;SDS011;6702;47.068;15.458;2023-02-12T16:51:27;7.63;;;4.17;;
13267;SDS011;6702;47.068;15.458;2023-02-12T16:54:34;10.33;;;5.50;;
13267;SDS011;6702;47.068;15.458;2023-02-12T16:57:40;13.37;;;5.03;;
13267;SDS011;6702;47.068;15.458;2023-02-12T17:00:47;4.40;;;3.77;;
13267;SDS011;6702;47.068;15.458;2023-02-12T17:03:52;6.53;;;5.50;;
13267;SDS011;6702;47.068;15.458;2023-02-12T17:06:58;5.90;;;5.17;;
13267;SDS011;6702;47.068;15.458;2023-02-12T17:10:06;5.03;;;3.70;;
13267;SDS011;6702;47.068;15.458;2023-02-12T17:13:16;6.83;;;4.70;;
13267;SDS011;6702;47.068;15.458;2023-02-12T17:16:23;5.60;;;3.83;;
13267;SDS011;6702;47.068;15.458;2023-02-12T17:19:32;10.90;;;7.70;;
13267;SDS011;6702;47.068;15.458;2023-02-12T17:22:37;10.30;;;6.30;;
13267;SDS011;6702;47.068;15.458;2023-02-12T17:25:52;7.80;;;3.40;;
13267;SDS011;6702;47.068;15.458;2023-02-12T17:29:01;3.83;;;3.40;;
13267;SDS011;6702;47.068;15.458;2023-02-12T17:32:09;7.40;;;6.20;;
13267;SDS011;6702;47.068;15.458;2023-02-12T17:35:17;25.10;;;13.93;;
13267;SDS011;6702;47.068;15.458;2023-02-12T17:38:23;15.20;;;8.40;;
13267;SDS011;6702;47.068;15.458;2023-02-12T17:41:29;6.50;;;5.70;;
13267;SDS011;6702;47.068;15.458;2023-02-12T17:44:38;9.80;;;7.73;;
13267;SDS011;6702;47.068;15.458;2023-02-12T17:47:45;14.23;;;13.03;;
13267;SDS011;6702;47.068;15.458;2023-02-12T17:50:52;15.77;;;14.13;;
13267;SDS011;6702;47.068;15.458;2023-02-12T17:53:58;24.43;;;21.93;;
13267;SDS011;6702;47.068;15.458;2023-02-12T17:57:07;16.87;;;15.10;;
13267;SDS011;6702;47.068;15.458;2023-02-12T18:00:24;18.13;;;13.27;;
13267;SDS011;6702;47.068;15.458;2023-02-12T18:03:31;15.03;;;13.43;;
13267;SDS011;6702;47.068;15.458;2023-02-12T18:06:36;13.00;;;10.40;;
13267;SDS011;6702;47.068;15.458;2023-02-12T18:09:41;14.43;;;10.33;;
13267;SDS011;6702;47.068;15.458;2023-02-12T18:12:45;12.40;;;9.57;;
13267;SDS011;6702;47.068;15.458;2023-02-12T18:15:53;12.87;;;9.87;;
13267;SDS011;6702;47.068;15.458;2023-02-12T18:18:58;12.43;;;8.80;;
13267;SDS011;6702;47.068;15.458;2023-02-12T18:22:07;10.47;;;8.50;;
13267;SDS011;6702;47.068;15.458;2023-02-12T18:25:12;10.53;;;9.43;;
13267;SDS011;6702;47.068;15.458;2023-02-12T18:28:19;11.87;;;9.33;;
13267;SDS011;6702;47.068;15.458;2023-02-12T18:31:26;13.10;;;10.00;;
13267;SDS011;6702;47.068;15.458;2023-02-12T18:34:31;12.40;;;11.10;;
13267;SDS011;6702;47.068;15.458;2023-02-12T18:37:38;12.67;;;11.43;;
13267;SDS011;6702;47.068;15.458;2023-02-12T18:40:46;17.90;;;13.90;;
13267;SDS011;6702;47.068;15.458;2023-02-12T18:43:51;16.63;;;11.90;;
13267;SDS011;6702;47.068;15.458;2023-02-12T18:46:58;15.73;;;12.93;;
13267;SDS011;6702;47.068;15.458;2023-02-12T18:50:08;14.23;;;11.40;;
13267;SDS011;6702;47.068;15.458;2023-02-12T18:53:14;12.43;;;9.13;;
13267;SDS011;6702;47.068;15.458;2023-02-12T18:56:21;11.57;;;10.17;;
13267;SDS011;6702;47.068;15.458;2023-02-12T18:59:26;16.70;;;11.53;;
13267;SDS011;6702;47.068;15.458;2023-02-12T19:02:33;12.50;;;9.10;;
13267;SDS011;6702;47.068;15.458;2023-02-12T19:05:38;10.87;;;9.80;;
13267;SDS011;6702;47.068;15.458;2023-02-12T19:08:44;11.70;;;10.63;;